sensor_id;sensor_type;location;lat;lon;timestamp;temperature;humidity
62007;DHT22;47963;53.008;6.754;2022-09-21T00:00:47;10.20;99.90
62007;DHT22;47963;53.008;6.754;2022-09-21T00:03:14;10.20;99.90
62007;DHT22;47963;53.008;6.754;2022-09-21T00:05:40;10.20;99.90
62007;DHT22;47963;53.008;6.754;2022-09-21T00:08:06;10.10;99.90
62007;DHT22;47963;53.008;6.754;2022-09-21T00:10:33;10.00;99.90
62007;DHT22;47963;53.008;6.754;2022-09-21T00:12:59;10.10;99.90
62007;DHT22;47963;53.008;6.754;2022-09-21T00:15:28;10.10;99.90
62007;DHT22;47963;53.008;6.754;2022-09-21T00:17:55;10.10;99.90
62007;DHT22;47963;53.008;6.754;2022-09-21T00:20:22;10.10;99.90
62007;DHT22;47963;53.008;6.754;2022-09-21T00:22:49;10.10;99.90
62007;DHT22;47963;53.008;6.754;2022-09-21T00:25:16;10.10;99.90
62007;DHT22;47963;53.008;6.754;2022-09-21T00:27:42;10.00;99.90
62007;DHT22;47963;53.008;6.754;2022-09-21T00:30:09;10.00;99.90
62007;DHT22;47963;53.008;6.754;2022-09-21T00:32:36;10.00;99.90
62007;DHT22;47963;53.008;6.754;2022-09-21T00:35:04;10.10;99.90
62007;DHT22;47963;53.008;6.754;2022-09-21T00:37:33;9.90;99.90
62007;DHT22;47963;53.008;6.754;2022-09-21T00:39:59;10.00;99.90
62007;DHT22;47963;53.008;6.754;2022-09-21T00:42:28;10.00;99.90
62007;DHT22;47963;53.008;6.754;2022-09-21T00:44:54;10.00;99.90
62007;DHT22;47963;53.008;6.754;2022-09-21T00:47:41;9.90;99.90
62007;DHT22;47963;53.008;6.754;2022-09-21T00:50:11;9.80;99.90
62007;DHT22;47963;53.008;6.754;2022-09-21T00:52:41;9.80;99.90
62007;DHT22;47963;53.008;6.754;2022-09-21T00:55:46;9.70;99.90
62007;DHT22;47963;53.008;6.754;2022-09-21T00:58:08;9.70;99.90
62007;DHT22;47963;53.008;6.754;2022-09-21T01:00:36;9.80;99.90
62007;DHT22;47963;53.008;6.754;2022-09-21T01:03:04;9.80;99.90
62007;DHT22;47963;53.008;6.754;2022-09-21T01:05:30;9.80;99.90
62007;DHT22;47963;53.008;6.754;2022-09-21T01:08:00;9.70;99.90
62007;DHT22;47963;53.008;6.754;2022-09-21T01:10:30;9.60;99.90
62007;DHT22;47963;53.008;6.754;2022-09-21T01:15:36;9.70;99.90
62007;DHT22;47963;53.008;6.754;2022-09-21T01:18:17;9.70;99.90
62007;DHT22;47963;53.008;6.754;2022-09-21T01:26:49;9.50;99.90
62007;DHT22;47963;53.008;6.754;2022-09-21T01:29:22;9.60;99.90
62007;DHT22;47963;53.008;6.754;2022-09-21T01:31:55;9.50;99.90
62007;DHT22;47963;53.008;6.754;2022-09-21T01:34:51;9.50;99.90
62007;DHT22;47963;53.008;6.754;2022-09-21T01:37:23;9.50;99.90
62007;DHT22;47963;53.008;6.754;2022-09-21T01:39:55;9.50;99.90
62007;DHT22;47963;53.008;6.754;2022-09-21T01:42:22;9.50;99.90
62007;DHT22;47963;53.008;6.754;2022-09-21T01:44:49;9.40;99.90
62007;DHT22;47963;53.008;6.754;2022-09-21T01:47:19;9.40;99.90
62007;DHT22;47963;53.008;6.754;2022-09-21T01:49:49;9.30;99.90
62007;DHT22;47963;53.008;6.754;2022-09-21T01:52:21;9.30;99.90
62007;DHT22;47963;53.008;6.754;2022-09-21T01:54:55;9.30;99.90
62007;DHT22;47963;53.008;6.754;2022-09-21T01:57:25;9.20;99.90
62007;DHT22;47963;53.008;6.754;2022-09-21T01:59:57;9.20;99.90
62007;DHT22;47963;53.008;6.754;2022-09-21T02:05:03;9.10;99.90
62007;DHT22;47963;53.008;6.754;2022-09-21T02:07:31;9.10;99.90
62007;DHT22;47963;53.008;6.754;2022-09-21T02:09:59;9.10;99.90
62007;DHT22;47963;53.008;6.754;2022-09-21T02:12:25;9.00;99.90
62007;DHT22;47963;53.008;6.754;2022-09-21T02:14:52;9.00;99.90
62007;DHT22;47963;53.008;6.754;2022-09-21T02:20:13;8.90;99.90
62007;DHT22;47963;53.008;6.754;2022-09-21T02:23:03;8.90;99.90
62007;DHT22;47963;53.008;6.754;2022-09-21T02:28:28;9.00;99.90
62007;DHT22;47963;53.008;6.754;2022-09-21T02:34:03;9.00;99.90
62007;DHT22;47963;53.008;6.754;2022-09-21T02:36:33;8.90;99.90
62007;DHT22;47963;53.008;6.754;2022-09-21T02:39:09;8.90;99.90
62007;DHT22;47963;53.008;6.754;2022-09-21T02:41:47;8.90;99.90
62007;DHT22;47963;53.008;6.754;2022-09-21T02:44:31;8.90;99.90
62007;DHT22;47963;53.008;6.754;2022-09-21T02:50:02;8.90;99.90
62007;DHT22;47963;53.008;6.754;2022-09-21T02:52:31;8.90;99.90
62007;DHT22;47963;53.008;6.754;2022-09-21T02:54:59;8.90;99.90
62007;DHT22;47963;53.008;6.754;2022-09-21T02:57:25;8.80;99.90
62007;DHT22;47963;53.008;6.754;2022-09-21T02:59:52;8.80;99.90
62007;DHT22;47963;53.008;6.754;2022-09-21T03:02:17;8.80;99.90
62007;DHT22;47963;53.008;6.754;2022-09-21T03:04:46;8.80;99.90
62007;DHT22;47963;53.008;6.754;2022-09-21T03:07:14;8.80;99.90
62007;DHT22;47963;53.008;6.754;2022-09-21T03:09:40;8.70;99.90
62007;DHT22;47963;53.008;6.754;2022-09-21T03:12:06;8.70;99.90
62007;DHT22;47963;53.008;6.754;2022-09-21T03:14:32;8.70;99.90
62007;DHT22;47963;53.008;6.754;2022-09-21T03:16:58;8.60;99.90
62007;DHT22;47963;53.008;6.754;2022-09-21T03:19:23;8.60;99.90
62007;DHT22;47963;53.008;6.754;2022-09-21T03:21:50;8.60;99.90
62007;DHT22;47963;53.008;6.754;2022-09-21T03:24:16;8.70;99.90
62007;DHT22;47963;53.008;6.754;2022-09-21T03:27:01;8.70;99.90
62007;DHT22;47963;53.008;6.754;2022-09-21T03:29:27;8.60;99.90
62007;DHT22;47963;53.008;6.754;2022-09-21T03:31:53;8.50;99.90
62007;DHT22;47963;53.008;6.754;2022-09-21T03:34:19;8.50;99.90
62007;DHT22;47963;53.008;6.754;2022-09-21T03:36:45;8.40;99.90
62007;DHT22;47963;53.008;6.754;2022-09-21T03:39:11;8.40;99.90
62007;DHT22;47963;53.008;6.754;2022-09-21T03:41:37;8.40;99.90
62007;DHT22;47963;53.008;6.754;2022-09-21T03:44:03;8.40;99.90
62007;DHT22;47963;53.008;6.754;2022-09-21T03:46:29;8.40;99.90
62007;DHT22;47963;53.008;6.754;2022-09-21T03:48:54;8.30;99.90
62007;DHT22;47963;53.008;6.754;2022-09-21T03:51:20;8.30;99.90
62007;DHT22;47963;53.008;6.754;2022-09-21T03:53:45;8.20;99.90
62007;DHT22;47963;53.008;6.754;2022-09-21T03:56:11;8.20;99.90
62007;DHT22;47963;53.008;6.754;2022-09-21T03:58:37;8.20;99.90
62007;DHT22;47963;53.008;6.754;2022-09-21T04:01:03;8.10;99.90
62007;DHT22;47963;53.008;6.754;2022-09-21T04:03:29;8.10;99.90
62007;DHT22;47963;53.008;6.754;2022-09-21T04:05:54;8.00;99.90
62007;DHT22;47963;53.008;6.754;2022-09-21T04:08:20;8.10;99.90
62007;DHT22;47963;53.008;6.754;2022-09-21T04:10:46;8.10;99.90
62007;DHT22;47963;53.008;6.754;2022-09-21T04:13:11;8.10;99.90
62007;DHT22;47963;53.008;6.754;2022-09-21T04:15:38;8.10;99.90
62007;DHT22;47963;53.008;6.754;2022-09-21T04:18:04;8.00;99.90
62007;DHT22;47963;53.008;6.754;2022-09-21T04:20:30;8.00;99.90
62007;DHT22;47963;53.008;6.754;2022-09-21T04:22:56;8.00;99.90
62007;DHT22;47963;53.008;6.754;2022-09-21T04:25:22;7.90;99.90
62007;DHT22;47963;53.008;6.754;2022-09-21T04:27:48;8.00;99.90
62007;DHT22;47963;53.008;6.754;2022-09-21T04:30:14;7.90;99.90
62007;DHT22;47963;53.008;6.754;2022-09-21T04:32:41;7.90;99.90
62007;DHT22;47963;53.008;6.754;2022-09-21T04:35:07;7.90;99.90
62007;DHT22;47963;53.008;6.754;2022-09-21T04:37:33;7.80;99.90
62007;DHT22;47963;53.008;6.754;2022-09-21T04:39:59;7.80;99.90
62007;DHT22;47963;53.008;6.754;2022-09-21T04:42:25;7.80;99.90
62007;DHT22;47963;53.008;6.754;2022-09-21T04:44:52;7.70;99.90
62007;DHT22;47963;53.008;6.754;2022-09-21T04:47:17;7.70;99.90
62007;DHT22;47963;53.008;6.754;2022-09-21T04:49:43;7.70;99.90
62007;DHT22;47963;53.008;6.754;2022-09-21T04:52:09;7.70;99.90
62007;DHT22;47963;53.008;6.754;2022-09-21T04:54:35;7.60;99.90
62007;DHT22;47963;53.008;6.754;2022-09-21T04:57:00;7.60;99.90
62007;DHT22;47963;53.008;6.754;2022-09-21T04:59:26;7.60;99.90
62007;DHT22;47963;53.008;6.754;2022-09-21T05:01:52;7.70;99.90
62007;DHT22;47963;53.008;6.754;2022-09-21T05:04:17;7.60;99.90
62007;DHT22;47963;53.008;6.754;2022-09-21T05:06:43;7.60;99.90
62007;DHT22;47963;53.008;6.754;2022-09-21T05:09:09;7.70;99.90
62007;DHT22;47963;53.008;6.754;2022-09-21T05:11:53;7.70;99.90
62007;DHT22;47963;53.008;6.754;2022-09-21T05:14:18;7.60;99.90
62007;DHT22;47963;53.008;6.754;2022-09-21T05:16:44;7.60;99.90
62007;DHT22;47963;53.008;6.754;2022-09-21T05:19:12;7.60;99.90
62007;DHT22;47963;53.008;6.754;2022-09-21T05:21:37;7.50;99.90
62007;DHT22;47963;53.008;6.754;2022-09-21T05:24:03;7.50;99.90
62007;DHT22;47963;53.008;6.754;2022-09-21T05:26:29;7.50;99.90
62007;DHT22;47963;53.008;6.754;2022-09-21T05:28:55;7.50;99.90
62007;DHT22;47963;53.008;6.754;2022-09-21T05:31:26;7.50;99.90
62007;DHT22;47963;53.008;6.754;2022-09-21T05:37:00;7.50;99.90
62007;DHT22;47963;53.008;6.754;2022-09-21T05:39:27;7.50;99.90
62007;DHT22;47963;53.008;6.754;2022-09-21T05:41:53;7.50;99.90
62007;DHT22;47963;53.008;6.754;2022-09-21T05:44:19;7.50;99.90
62007;DHT22;47963;53.008;6.754;2022-09-21T05:46:50;7.50;99.90
62007;DHT22;47963;53.008;6.754;2022-09-21T05:49:21;7.60;99.90
62007;DHT22;47963;53.008;6.754;2022-09-21T05:52:12;7.60;99.90
62007;DHT22;47963;53.008;6.754;2022-09-21T05:55:02;7.60;99.90
62007;DHT22;47963;53.008;6.754;2022-09-21T05:57:43;7.60;99.90
62007;DHT22;47963;53.008;6.754;2022-09-21T06:00:17;7.70;99.90
62007;DHT22;47963;53.008;6.754;2022-09-21T06:05:15;7.70;99.90
62007;DHT22;47963;53.008;6.754;2022-09-21T06:07:41;7.70;99.90
62007;DHT22;47963;53.008;6.754;2022-09-21T06:10:09;7.80;99.90
62007;DHT22;47963;53.008;6.754;2022-09-21T06:12:35;7.90;99.90
62007;DHT22;47963;53.008;6.754;2022-09-21T06:15:01;7.90;99.90
62007;DHT22;47963;53.008;6.754;2022-09-21T06:17:27;8.00;99.90
62007;DHT22;47963;53.008;6.754;2022-09-21T06:19:53;8.10;99.90
62007;DHT22;47963;53.008;6.754;2022-09-21T06:22:18;8.20;99.90
62007;DHT22;47963;53.008;6.754;2022-09-21T06:24:44;8.30;99.90
62007;DHT22;47963;53.008;6.754;2022-09-21T06:27:10;8.30;99.90
62007;DHT22;47963;53.008;6.754;2022-09-21T06:29:35;8.40;99.90
62007;DHT22;47963;53.008;6.754;2022-09-21T06:32:02;8.50;99.90
62007;DHT22;47963;53.008;6.754;2022-09-21T06:34:28;8.60;99.90
62007;DHT22;47963;53.008;6.754;2022-09-21T06:36:54;8.60;99.90
62007;DHT22;47963;53.008;6.754;2022-09-21T06:39:19;8.60;99.90
62007;DHT22;47963;53.008;6.754;2022-09-21T06:41:45;8.70;99.90
62007;DHT22;47963;53.008;6.754;2022-09-21T06:44:11;8.70;99.90
62007;DHT22;47963;53.008;6.754;2022-09-21T06:46:36;8.70;99.90
62007;DHT22;47963;53.008;6.754;2022-09-21T06:49:02;8.70;99.90
62007;DHT22;47963;53.008;6.754;2022-09-21T06:51:28;8.80;99.90
62007;DHT22;47963;53.008;6.754;2022-09-21T06:53:54;8.80;99.90
62007;DHT22;47963;53.008;6.754;2022-09-21T06:56:22;8.90;99.90
62007;DHT22;47963;53.008;6.754;2022-09-21T06:58:48;9.00;99.90
62007;DHT22;47963;53.008;6.754;2022-09-21T07:01:15;9.10;99.90
62007;DHT22;47963;53.008;6.754;2022-09-21T07:03:41;9.20;99.90
62007;DHT22;47963;53.008;6.754;2022-09-21T07:06:09;9.20;99.90
62007;DHT22;47963;53.008;6.754;2022-09-21T07:08:36;9.30;99.90
62007;DHT22;47963;53.008;6.754;2022-09-21T07:11:03;9.40;99.90
62007;DHT22;47963;53.008;6.754;2022-09-21T07:13:29;9.50;99.90
62007;DHT22;47963;53.008;6.754;2022-09-21T07:15:55;9.60;99.90
62007;DHT22;47963;53.008;6.754;2022-09-21T07:18:21;9.70;99.90
62007;DHT22;47963;53.008;6.754;2022-09-21T07:20:47;9.80;99.90
62007;DHT22;47963;53.008;6.754;2022-09-21T07:23:17;9.90;99.90
62007;DHT22;47963;53.008;6.754;2022-09-21T07:25:45;10.00;99.90
62007;DHT22;47963;53.008;6.754;2022-09-21T07:28:12;10.20;99.90
62007;DHT22;47963;53.008;6.754;2022-09-21T07:30:38;10.20;99.90
62007;DHT22;47963;53.008;6.754;2022-09-21T07:33:05;10.30;99.90
62007;DHT22;47963;53.008;6.754;2022-09-21T07:35:31;10.40;99.90
62007;DHT22;47963;53.008;6.754;2022-09-21T07:37:58;10.50;99.90
62007;DHT22;47963;53.008;6.754;2022-09-21T07:40:24;10.60;99.90
62007;DHT22;47963;53.008;6.754;2022-09-21T07:42:50;10.70;99.90
62007;DHT22;47963;53.008;6.754;2022-09-21T07:45:15;10.80;99.90
62007;DHT22;47963;53.008;6.754;2022-09-21T07:47:41;10.90;99.90
62007;DHT22;47963;53.008;6.754;2022-09-21T07:50:07;11.00;99.90
62007;DHT22;47963;53.008;6.754;2022-09-21T07:52:33;11.10;99.90
62007;DHT22;47963;53.008;6.754;2022-09-21T07:54:59;11.20;99.90
62007;DHT22;47963;53.008;6.754;2022-09-21T07:57:26;11.30;99.90
62007;DHT22;47963;53.008;6.754;2022-09-21T08:00:11;11.40;99.90
62007;DHT22;47963;53.008;6.754;2022-09-21T08:02:37;11.50;99.90
62007;DHT22;47963;53.008;6.754;2022-09-21T08:05:02;11.50;99.90
62007;DHT22;47963;53.008;6.754;2022-09-21T08:07:28;11.60;99.90
62007;DHT22;47963;53.008;6.754;2022-09-21T08:09:54;11.80;99.90
62007;DHT22;47963;53.008;6.754;2022-09-21T08:12:19;11.80;99.90
62007;DHT22;47963;53.008;6.754;2022-09-21T08:14:46;11.80;99.90
62007;DHT22;47963;53.008;6.754;2022-09-21T08:17:13;12.00;99.90
62007;DHT22;47963;53.008;6.754;2022-09-21T08:19:39;12.10;99.90
62007;DHT22;47963;53.008;6.754;2022-09-21T08:22:05;12.20;99.90
62007;DHT22;47963;53.008;6.754;2022-09-21T08:24:31;12.30;99.90
62007;DHT22;47963;53.008;6.754;2022-09-21T08:26:58;12.30;99.90
62007;DHT22;47963;53.008;6.754;2022-09-21T08:29:24;12.40;99.90
62007;DHT22;47963;53.008;6.754;2022-09-21T08:31:50;12.50;99.90
62007;DHT22;47963;53.008;6.754;2022-09-21T08:34:17;12.50;99.90
62007;DHT22;47963;53.008;6.754;2022-09-21T08:36:44;12.60;99.90
62007;DHT22;47963;53.008;6.754;2022-09-21T08:39:11;12.70;99.90
62007;DHT22;47963;53.008;6.754;2022-09-21T08:41:59;12.70;99.90
62007;DHT22;47963;53.008;6.754;2022-09-21T08:47:25;12.90;99.90
62007;DHT22;47963;53.008;6.754;2022-09-21T08:49:56;13.00;99.90
62007;DHT22;47963;53.008;6.754;2022-09-21T08:52:23;13.10;99.90
62007;DHT22;47963;53.008;6.754;2022-09-21T08:54:58;13.10;99.90
62007;DHT22;47963;53.008;6.754;2022-09-21T08:57:29;13.10;99.90
62007;DHT22;47963;53.008;6.754;2022-09-21T08:59:55;13.30;99.90
62007;DHT22;47963;53.008;6.754;2022-09-21T09:16:37;13.60;99.90
62007;DHT22;47963;53.008;6.754;2022-09-21T09:21:40;13.60;99.90
62007;DHT22;47963;53.008;6.754;2022-09-21T09:27:38;13.80;99.90
62007;DHT22;47963;53.008;6.754;2022-09-21T09:30:19;14.00;99.90
62007;DHT22;47963;53.008;6.754;2022-09-21T09:35:47;14.20;99.90
62007;DHT22;47963;53.008;6.754;2022-09-21T09:41:06;14.40;99.90
62007;DHT22;47963;53.008;6.754;2022-09-21T09:44:08;14.50;99.90
62007;DHT22;47963;53.008;6.754;2022-09-21T09:46:48;14.70;99.90
62007;DHT22;47963;53.008;6.754;2022-09-21T09:51:52;14.80;99.90
62007;DHT22;47963;53.008;6.754;2022-09-21T09:54:20;14.90;99.90
62007;DHT22;47963;53.008;6.754;2022-09-21T09:56:47;14.90;99.90
62007;DHT22;47963;53.008;6.754;2022-09-21T09:59:28;15.00;99.90
62007;DHT22;47963;53.008;6.754;2022-09-21T10:02:05;15.10;99.90
62007;DHT22;47963;53.008;6.754;2022-09-21T10:04:31;15.20;99.90
62007;DHT22;47963;53.008;6.754;2022-09-21T10:06:59;15.30;99.90
62007;DHT22;47963;53.008;6.754;2022-09-21T10:09:30;15.40;99.90
62007;DHT22;47963;53.008;6.754;2022-09-21T10:12:03;15.60;99.90
62007;DHT22;47963;53.008;6.754;2022-09-21T10:14:47;15.60;99.90
62007;DHT22;47963;53.008;6.754;2022-09-21T10:17:15;15.70;99.90
62007;DHT22;47963;53.008;6.754;2022-09-21T10:19:41;15.80;99.90
62007;DHT22;47963;53.008;6.754;2022-09-21T10:22:17;15.80;99.90
62007;DHT22;47963;53.008;6.754;2022-09-21T10:24:49;15.90;99.90
62007;DHT22;47963;53.008;6.754;2022-09-21T10:27:20;15.80;99.90
62007;DHT22;47963;53.008;6.754;2022-09-21T10:29:49;15.90;99.90
62007;DHT22;47963;53.008;6.754;2022-09-21T10:37:30;16.10;99.90
62007;DHT22;47963;53.008;6.754;2022-09-21T10:39:59;16.10;99.90
62007;DHT22;47963;53.008;6.754;2022-09-21T10:42:29;16.10;99.90
62007;DHT22;47963;53.008;6.754;2022-09-21T10:45:20;16.20;99.90
62007;DHT22;47963;53.008;6.754;2022-09-21T10:47:58;16.20;99.90
62007;DHT22;47963;53.008;6.754;2022-09-21T10:50:42;16.30;99.90
62007;DHT22;47963;53.008;6.754;2022-09-21T10:55:41;16.50;99.90
62007;DHT22;47963;53.008;6.754;2022-09-21T10:58:12;16.50;99.90
62007;DHT22;47963;53.008;6.754;2022-09-21T11:00:46;16.50;99.90
62007;DHT22;47963;53.008;6.754;2022-09-21T11:03:37;16.50;99.90
62007;DHT22;47963;53.008;6.754;2022-09-21T11:08:58;16.80;99.90
62007;DHT22;47963;53.008;6.754;2022-09-21T11:17:38;16.90;99.90
62007;DHT22;47963;53.008;6.754;2022-09-21T11:26:05;16.90;99.90
62007;DHT22;47963;53.008;6.754;2022-09-21T11:31:28;17.00;99.90
62007;DHT22;47963;53.008;6.754;2022-09-21T11:47:06;17.30;99.90
62007;DHT22;47963;53.008;6.754;2022-09-21T11:49:40;17.50;99.90
62007;DHT22;47963;53.008;6.754;2022-09-21T12:00:57;17.60;99.90
62007;DHT22;47963;53.008;6.754;2022-09-21T12:06:51;17.40;99.90
62007;DHT22;47963;53.008;6.754;2022-09-21T12:09:35;17.40;99.90
62007;DHT22;47963;53.008;6.754;2022-09-21T12:12:31;17.50;99.90
62007;DHT22;47963;53.008;6.754;2022-09-21T12:22:57;17.60;99.90
62007;DHT22;47963;53.008;6.754;2022-09-21T12:25:53;17.80;99.90
62007;DHT22;47963;53.008;6.754;2022-09-21T12:28:34;17.90;99.90
62007;DHT22;47963;53.008;6.754;2022-09-21T12:31:08;17.90;99.90
62007;DHT22;47963;53.008;6.754;2022-09-21T12:36:17;17.90;99.90
62007;DHT22;47963;53.008;6.754;2022-09-21T12:39:06;17.70;99.90
62007;DHT22;47963;53.008;6.754;2022-09-21T12:44:49;17.60;99.90
62007;DHT22;47963;53.008;6.754;2022-09-21T12:47:22;17.30;99.90
62007;DHT22;47963;53.008;6.754;2022-09-21T12:49:50;17.10;99.90
62007;DHT22;47963;53.008;6.754;2022-09-21T12:52:25;16.90;99.90
62007;DHT22;47963;53.008;6.754;2022-09-21T13:00:28;16.50;99.90
62007;DHT22;47963;53.008;6.754;2022-09-21T13:03:18;16.40;99.90
62007;DHT22;47963;53.008;6.754;2022-09-21T13:09:01;16.20;99.90
62007;DHT22;47963;53.008;6.754;2022-09-21T13:11:30;16.10;99.90
62007;DHT22;47963;53.008;6.754;2022-09-21T13:14:00;16.10;99.90
62007;DHT22;47963;53.008;6.754;2022-09-21T13:16:32;16.00;99.90
62007;DHT22;47963;53.008;6.754;2022-09-21T13:19:18;16.00;99.90
62007;DHT22;47963;53.008;6.754;2022-09-21T13:21:45;16.00;99.90
62007;DHT22;47963;53.008;6.754;2022-09-21T13:24:26;16.00;99.90
62007;DHT22;47963;53.008;6.754;2022-09-21T13:26:56;15.90;99.90
62007;DHT22;47963;53.008;6.754;2022-09-21T13:29:30;15.90;99.90
62007;DHT22;47963;53.008;6.754;2022-09-21T13:32:21;15.90;99.90
62007;DHT22;47963;53.008;6.754;2022-09-21T13:34:47;15.90;99.90
62007;DHT22;47963;53.008;6.754;2022-09-21T13:37:26;15.90;99.90
62007;DHT22;47963;53.008;6.754;2022-09-21T13:47:30;15.90;99.90
62007;DHT22;47963;53.008;6.754;2022-09-21T13:49:57;15.90;99.90
62007;DHT22;47963;53.008;6.754;2022-09-21T13:52:44;15.80;99.90
62007;DHT22;47963;53.008;6.754;2022-09-21T13:55:25;15.80;99.90
62007;DHT22;47963;53.008;6.754;2022-09-21T13:57:54;15.90;99.90
62007;DHT22;47963;53.008;6.754;2022-09-21T14:00:32;16.10;99.90
62007;DHT22;47963;53.008;6.754;2022-09-21T14:03:03;16.20;99.90
62007;DHT22;47963;53.008;6.754;2022-09-21T14:05:45;16.20;99.90
62007;DHT22;47963;53.008;6.754;2022-09-21T14:10:38;16.10;99.90
62007;DHT22;47963;53.008;6.754;2022-09-21T14:13:24;16.00;99.90
62007;DHT22;47963;53.008;6.754;2022-09-21T14:15:51;16.00;99.90
62007;DHT22;47963;53.008;6.754;2022-09-21T14:18:18;16.00;99.90
62007;DHT22;47963;53.008;6.754;2022-09-21T14:23:33;16.10;99.90
62007;DHT22;47963;53.008;6.754;2022-09-21T14:26:00;16.50;99.90
62007;DHT22;47963;53.008;6.754;2022-09-21T14:28:42;17.00;99.90
62007;DHT22;47963;53.008;6.754;2022-09-21T14:31:30;17.50;99.90
62007;DHT22;47963;53.008;6.754;2022-09-21T14:34:01;18.10;99.90
62007;DHT22;47963;53.008;6.754;2022-09-21T14:36:36;18.40;99.90
62007;DHT22;47963;53.008;6.754;2022-09-21T14:39:20;18.80;99.90
62007;DHT22;47963;53.008;6.754;2022-09-21T14:41:48;19.20;99.90
62007;DHT22;47963;53.008;6.754;2022-09-21T14:44:20;19.50;99.90
62007;DHT22;47963;53.008;6.754;2022-09-21T14:52:44;20.60;99.90
62007;DHT22;47963;53.008;6.754;2022-09-21T14:55:23;21.80;99.90
62007;DHT22;47963;53.008;6.754;2022-09-21T15:00:47;24.40;99.90
62007;DHT22;47963;53.008;6.754;2022-09-21T15:04:00;25.40;99.90
62007;DHT22;47963;53.008;6.754;2022-09-21T15:06:46;22.70;99.90
62007;DHT22;47963;53.008;6.754;2022-09-21T15:18:15;27.60;99.90
62007;DHT22;47963;53.008;6.754;2022-09-21T15:20:58;26.90;99.90
62007;DHT22;47963;53.008;6.754;2022-09-21T15:23:35;26.70;99.90
62007;DHT22;47963;53.008;6.754;2022-09-21T15:26:09;28.30;99.90
62007;DHT22;47963;53.008;6.754;2022-09-21T15:28:42;29.00;99.90
62007;DHT22;47963;53.008;6.754;2022-09-21T15:31:13;29.60;99.90
62007;DHT22;47963;53.008;6.754;2022-09-21T15:33:41;30.00;99.90
62007;DHT22;47963;53.008;6.754;2022-09-21T15:36:11;30.20;99.90
62007;DHT22;47963;53.008;6.754;2022-09-21T15:38:37;30.20;99.90
62007;DHT22;47963;53.008;6.754;2022-09-21T15:41:04;30.40;99.90
62007;DHT22;47963;53.008;6.754;2022-09-21T15:43:31;30.70;99.90
62007;DHT22;47963;53.008;6.754;2022-09-21T15:46:02;30.80;99.90
62007;DHT22;47963;53.008;6.754;2022-09-21T15:48:34;30.80;99.90
62007;DHT22;47963;53.008;6.754;2022-09-21T15:51:23;30.80;99.90
62007;DHT22;47963;53.008;6.754;2022-09-21T15:53:59;30.80;99.90
62007;DHT22;47963;53.008;6.754;2022-09-21T15:56:30;30.90;99.90
62007;DHT22;47963;53.008;6.754;2022-09-21T15:59:00;30.90;99.90
62007;DHT22;47963;53.008;6.754;2022-09-21T16:01:43;30.90;99.90
62007;DHT22;47963;53.008;6.754;2022-09-21T16:04:27;31.00;99.90
62007;DHT22;47963;53.008;6.754;2022-09-21T16:07:06;30.90;99.90
62007;DHT22;47963;53.008;6.754;2022-09-21T16:09:41;30.90;99.90
62007;DHT22;47963;53.008;6.754;2022-09-21T16:15:14;29.40;99.90
62007;DHT22;47963;53.008;6.754;2022-09-21T16:17:59;27.00;99.90
62007;DHT22;47963;53.008;6.754;2022-09-21T16:20:44;25.30;99.90
62007;DHT22;47963;53.008;6.754;2022-09-21T16:23:13;24.00;99.90
62007;DHT22;47963;53.008;6.754;2022-09-21T16:25:40;22.90;99.90
62007;DHT22;47963;53.008;6.754;2022-09-21T16:33:33;20.90;99.90
62007;DHT22;47963;53.008;6.754;2022-09-21T16:36:01;20.30;99.90
62007;DHT22;47963;53.008;6.754;2022-09-21T16:38:27;19.90;99.90
62007;DHT22;47963;53.008;6.754;2022-09-21T16:40:53;19.50;99.90
62007;DHT22;47963;53.008;6.754;2022-09-21T16:43:19;19.20;99.90
62007;DHT22;47963;53.008;6.754;2022-09-21T16:45:47;19.00;99.90
62007;DHT22;47963;53.008;6.754;2022-09-21T16:48:13;18.80;99.90
62007;DHT22;47963;53.008;6.754;2022-09-21T16:50:39;18.60;99.90
62007;DHT22;47963;53.008;6.754;2022-09-21T16:53:07;18.40;99.90
62007;DHT22;47963;53.008;6.754;2022-09-21T16:55:33;18.20;99.90
62007;DHT22;47963;53.008;6.754;2022-09-21T16:57:59;18.00;99.90
62007;DHT22;47963;53.008;6.754;2022-09-21T17:00:27;17.90;99.90
62007;DHT22;47963;53.008;6.754;2022-09-21T17:02:53;17.60;99.90
62007;DHT22;47963;53.008;6.754;2022-09-21T17:05:19;17.50;99.90
62007;DHT22;47963;53.008;6.754;2022-09-21T17:07:57;17.40;99.90
62007;DHT22;47963;53.008;6.754;2022-09-21T17:10:28;17.30;99.90
62007;DHT22;47963;53.008;6.754;2022-09-21T17:12:55;17.20;99.90
62007;DHT22;47963;53.008;6.754;2022-09-21T17:15:22;17.00;99.90
62007;DHT22;47963;53.008;6.754;2022-09-21T17:17:49;16.90;99.90
62007;DHT22;47963;53.008;6.754;2022-09-21T17:20:22;16.80;99.90
62007;DHT22;47963;53.008;6.754;2022-09-21T17:22:50;16.60;99.90
62007;DHT22;47963;53.008;6.754;2022-09-21T17:25:16;16.40;99.90
62007;DHT22;47963;53.008;6.754;2022-09-21T17:27:41;16.40;99.90
62007;DHT22;47963;53.008;6.754;2022-09-21T17:30:11;16.30;99.90
62007;DHT22;47963;53.008;6.754;2022-09-21T17:32:38;16.20;99.90
62007;DHT22;47963;53.008;6.754;2022-09-21T17:35:16;16.10;99.90
62007;DHT22;47963;53.008;6.754;2022-09-21T17:37:44;16.00;99.90
62007;DHT22;47963;53.008;6.754;2022-09-21T17:40:11;15.90;99.90
62007;DHT22;47963;53.008;6.754;2022-09-21T17:42:41;15.80;99.90
62007;DHT22;47963;53.008;6.754;2022-09-21T17:45:26;15.80;99.90
62007;DHT22;47963;53.008;6.754;2022-09-21T17:47:53;15.70;99.90
62007;DHT22;47963;53.008;6.754;2022-09-21T17:50:22;15.60;99.90
62007;DHT22;47963;53.008;6.754;2022-09-21T17:52:50;15.60;99.90
62007;DHT22;47963;53.008;6.754;2022-09-21T17:55:36;15.40;99.90
62007;DHT22;47963;53.008;6.754;2022-09-21T18:01:04;15.30;99.90
62007;DHT22;47963;53.008;6.754;2022-09-21T18:03:35;15.20;99.90
62007;DHT22;47963;53.008;6.754;2022-09-21T18:06:10;15.20;99.90
62007;DHT22;47963;53.008;6.754;2022-09-21T18:08:37;15.10;99.90
62007;DHT22;47963;53.008;6.754;2022-09-21T18:14:39;15.00;99.90
62007;DHT22;47963;53.008;6.754;2022-09-21T18:25:28;14.70;99.90
62007;DHT22;47963;53.008;6.754;2022-09-21T18:27:57;14.70;99.90
62007;DHT22;47963;53.008;6.754;2022-09-21T18:30:24;14.60;99.90
62007;DHT22;47963;53.008;6.754;2022-09-21T18:33:19;14.60;99.90
62007;DHT22;47963;53.008;6.754;2022-09-21T18:36:01;14.40;99.90
62007;DHT22;47963;53.008;6.754;2022-09-21T18:41:51;14.30;99.90
62007;DHT22;47963;53.008;6.754;2022-09-21T18:44:41;14.20;99.90
62007;DHT22;47963;53.008;6.754;2022-09-21T18:47:29;14.20;99.90
62007;DHT22;47963;53.008;6.754;2022-09-21T18:50:14;14.10;99.90
62007;DHT22;47963;53.008;6.754;2022-09-21T18:53:15;14.00;99.90
62007;DHT22;47963;53.008;6.754;2022-09-21T18:55:46;14.00;99.90
62007;DHT22;47963;53.008;6.754;2022-09-21T18:58:13;14.00;99.90
62007;DHT22;47963;53.008;6.754;2022-09-21T19:00:38;14.00;99.90
62007;DHT22;47963;53.008;6.754;2022-09-21T19:03:09;13.90;99.90
62007;DHT22;47963;53.008;6.754;2022-09-21T19:05:36;13.90;99.90
62007;DHT22;47963;53.008;6.754;2022-09-21T19:08:28;13.80;99.90
62007;DHT22;47963;53.008;6.754;2022-09-21T19:11:17;13.80;99.90